Time;durP1;ratioP1;P1;durP2;ratioP2;P2;SDS_P1;SDS_P2;PMS_P1;PMS_P2;Temp;Humidity;BMP_temperature;BMP_pressure;BME280_temperature;BME280_humidity;BME280_pressure;Samples;Min_cycle;Max_cycle;Signal;HPM_P1;HPM_P2
2021/06/19 00:02:07;;;;;;;;;6.00;6.00;;;;;22.49;60.45;101148.38;5088415;28;45354;-90
2021/06/19 00:04:34;;;;;;;;;6.67;5.00;;;;;22.54;60.74;101169.72;5084512;27;45398;-90
2021/06/19 00:07:02;;;;;;;;;5.00;5.00;;;;;22.62;60.78;101188.25;5079823;27;45208;-90
2021/06/19 00:09:27;;;;;;;;;6.00;6.00;;;;;22.55;60.65;101179.50;5080075;27;45382;-89
2021/06/19 00:11:53;;;;;;;;;6.00;6.00;;;;;22.53;60.75;101168.81;5078420;28;45283;-90
2021/06/19 00:14:19;;;;;;;;;4.67;4.67;;;;;22.40;60.42;101156.69;5079583;27;45327;-90
2021/06/19 00:16:45;;;;;;;;;6.67;4.00;;;;;22.48;60.75;101177.91;5081576;27;45399;-90
2021/06/19 00:19:10;;;;;;;;;5.33;5.33;;;;;22.52;61.36;101180.47;5092169;27;45388;-90
2021/06/19 00:21:36;;;;;;;;;5.00;5.00;;;;;22.36;61.21;101163.03;5094997;27;45363;-90
2021/06/19 00:24:02;;;;;;;;;5.00;4.33;;;;;22.41;60.89;101174.50;5094083;27;44739;-90
2021/06/19 00:26:27;;;;;;;;;8.00;5.00;;;;;22.36;60.75;101157.69;5109950;27;44933;-90
2021/06/19 00:28:53;;;;;;;;;8.00;6.33;;;;;22.37;60.55;101168.34;5086298;27;46904;-90
2021/06/19 00:31:18;;;;;;;;;9.00;7.00;;;;;22.34;61.35;101160.38;5079492;27;45412;-90
2021/06/19 00:33:44;;;;;;;;;6.00;5.00;;;;;22.30;61.04;101154.22;5079037;27;45430;-89
2021/06/19 00:36:09;;;;;;;;;5.67;5.33;;;;;22.32;60.91;101159.53;5080152;27;45393;-90
2021/06/19 00:38:34;;;;;;;;;7.67;5.00;;;;;22.33;60.66;101167.56;5078294;27;47934;-91
2021/06/19 00:41:00;;;;;;;;;4.00;4.00;;;;;22.37;60.66;101171.03;5078130;28;45556;-90
2021/06/19 00:43:25;;;;;;;;;4.33;4.33;;;;;22.25;60.79;101147.25;5095092;27;45394;-90
2021/06/19 00:45:51;;;;;;;;;5.00;5.00;;;;;22.23;60.58;101155.28;5077669;28;45519;-91
2021/06/19 00:48:16;;;;;;;;;3.33;3.00;;;;;22.24;60.68;101161.53;5094580;27;47181;-91
2021/06/19 00:50:42;;;;;;;;;4.33;4.33;;;;;22.24;61.00;101162.41;5079631;28;45337;-91
2021/06/19 00:53:09;;;;;;;;;5.00;4.33;;;;;22.20;61.02;101160.72;5078992;28;45298;-91
2021/06/19 00:55:34;;;;;;;;;4.33;4.33;;;;;22.19;60.82;101161.63;5077538;27;45431;-90
2021/06/19 00:58:02;;;;;;;;;4.00;4.00;;;;;22.29;60.90;101181.06;5078259;27;46265;-91
2021/06/19 01:00:28;;;;;;;;;4.33;4.33;;;;;22.12;60.64;101149.34;5076653;28;45905;-90
2021/06/19 01:02:55;;;;;;;;;6.00;4.67;;;;;22.08;60.90;101151.22;5077080;27;45386;-90
2021/06/19 01:05:23;;;;;;;;;5.00;5.00;;;;;22.13;61.49;101156.44;5078777;27;45555;-91
2021/06/19 01:07:49;;;;;;;;;6.00;4.00;;;;;22.06;61.09;101156.59;5078405;27;46349;-90
2021/06/19 01:10:14;;;;;;;;;5.00;5.00;;;;;22.05;61.09;101151.28;5076755;28;45461;-90
2021/06/19 01:12:45;;;;;;;;;4.00;4.00;;;;;22.17;61.00;101180.41;5077229;27;45409;-90
2021/06/19 01:15:12;;;;;;;;;4.00;4.00;;;;;22.01;60.33;101144.22;5077353;28;45418;-90
2021/06/19 01:17:37;;;;;;;;;4.67;4.67;;;;;22.02;60.84;101146.88;5076927;27;47465;-89
2021/06/19 01:20:07;;;;;;;;;4.00;4.00;;;;;21.86;60.83;101124.94;5078565;27;45351;-91
2021/06/19 01:22:34;;;;;;;;;4.33;4.33;;;;;22.04;61.01;101146.84;5076707;28;45437;-90
2021/06/19 01:25:01;;;;;;;;;5.00;5.00;;;;;21.88;60.70;101114.22;5077350;27;45206;-90
2021/06/19 01:27:28;;;;;;;;;5.67;5.33;;;;;21.85;60.69;101117.81;5077045;27;47049;-90
2021/06/19 01:29:56;;;;;;;;;4.00;4.00;;;;;21.85;60.81;101124.06;5078328;27;45511;-91
2021/06/19 01:32:22;;;;;;;;;3.00;3.00;;;;;21.83;60.96;101124.97;5078067;28;45407;-90
2021/06/19 01:34:48;;;;;;;;;4.00;4.00;;;;;21.83;61.28;101139.28;5076708;27;45484;-91
2021/06/19 01:37:17;;;;;;;;;5.33;4.00;;;;;21.86;60.90;101152.59;5076526;28;47024;-89
2021/06/19 01:39:42;;;;;;;;;4.33;4.33;;;;;21.88;61.36;101159.69;5076938;28;45455;-90
2021/06/19 01:42:08;;;;;;;;;6.67;4.33;;;;;21.89;61.14;101159.69;5078635;28;45245;-90
2021/06/19 01:44:34;;;;;;;;;6.00;5.33;;;;;21.74;61.22;101147.50;5085190;27;45411;-90
2021/06/19 01:46:59;;;;;;;;;3.67;3.00;;;;;21.83;61.24;101170.47;5078016;28;47025;-90
2021/06/19 01:49:34;;;;;;;;;7.33;4.33;;;;;21.72;61.65;101155.53;5078315;27;45376;-90
2021/06/19 01:52:00;;;;;;;;;4.00;4.00;;;;;21.73;61.06;101165.34;5077801;27;45372;-91
2021/06/19 01:54:26;;;;;;;;;4.33;4.00;;;;;21.78;61.41;101175.94;5077973;28;45520;-91
2021/06/19 01:56:51;;;;;;;;;4.00;4.00;;;;;21.74;61.68;101174.25;5076366;27;48043;-91
2021/06/19 01:59:17;;;;;;;;;3.33;3.33;;;;;21.72;61.49;101178.78;5076736;27;45440;-90
2021/06/19 02:01:45;;;;;;;;;4.00;4.00;;;;;21.63;61.32;101171.81;5076932;27;45492;-91
2021/06/19 02:04:11;;;;;;;;;4.00;4.00;;;;;21.74;61.38;101179.63;5076944;28;45597;-90
2021/06/19 02:06:36;;;;;;;;;3.67;3.00;;;;;21.60;61.03;101161.16;5077657;27;46253;-91
2021/06/19 02:09:07;;;;;;;;;4.33;4.00;;;;;21.65;60.71;101172.66;5077785;28;45282;-90
2021/06/19 02:11:33;;;;;;;;;4.00;4.00;;;;;21.52;60.98;101156.00;5079711;27;45413;-91
2021/06/19 02:13:59;;;;;;;;;3.00;3.00;;;;;21.56;60.85;101160.38;5084088;27;45368;-92
2021/06/19 02:16:24;;;;;;;;;3.00;3.00;;;;;21.62;61.23;101178.97;5086231;27;47570;-91
2021/06/19 02:18:50;;;;;;;;;4.33;4.33;;;;;21.65;61.07;101175.34;5087783;27;45246;-92
2021/06/19 02:21:16;;;;;;;;;5.00;4.00;;;;;21.54;61.47;101153.28;5081352;27;45332;-92
2021/06/19 02:23:42;;;;;;;;;4.33;4.00;;;;;21.51;61.03;101151.59;5080532;27;45497;-91
2021/06/19 02:26:07;;;;;;;;;3.67;3.67;;;;;21.61;61.12;101160.28;5081031;27;45452;-90
2021/06/19 02:28:32;;;;;;;;;3.67;3.67;;;;;21.54;61.11;101151.50;5081202;27;45347;-92
2021/06/19 02:30:58;;;;;;;;;2.00;2.00;;;;;21.58;60.80;101150.50;5080193;27;45425;-91
2021/06/19 02:33:24;;;;;;;;;4.67;4.67;;;;;21.51;61.33;101143.56;5079892;28;45621;-91
2021/06/19 02:35:51;;;;;;;;;3.00;3.00;;;;;21.50;61.15;101147.13;5080901;27;46184;-92
2021/06/19 02:38:17;;;;;;;;;3.00;3.00;;;;;21.60;61.02;101177.22;5079429;27;45483;-92
2021/06/19 02:40:44;;;;;;;;;3.00;3.00;;;;;21.52;61.38;101158.69;5081183;27;45495;-90
2021/06/19 02:43:10;;;;;;;;;3.00;3.00;;;;;21.50;61.06;101164.06;5079788;27;45327;-91
2021/06/19 02:45:36;;;;;;;;;3.00;3.00;;;;;21.63;61.75;101187.88;5078939;28;47375;-92
2021/06/19 02:48:02;;;;;;;;;4.67;3.33;;;;;21.65;61.37;101180.69;5078977;27;45385;-91
2021/06/19 02:50:30;;;;;;;;;4.00;4.00;;;;;21.60;61.07;101174.53;5096599;27;45351;-92
2021/06/19 02:52:57;;;;;;;;;4.00;3.33;;;;;21.52;61.35;101164.03;5080014;27;45448;-91
2021/06/19 02:55:28;;;;;;;;;3.33;3.33;;;;;21.57;60.85;101169.28;5079558;28;47228;-91
2021/06/19 02:57:54;;;;;;;;;4.00;3.00;;;;;21.60;61.21;101178.09;5079509;27;45561;-89
2021/06/19 03:00:21;;;;;;;;;4.00;4.00;;;;;21.56;61.31;101171.06;5079372;27;45465;-91
2021/06/19 03:02:47;;;;;;;;;3.67;3.67;;;;;21.61;61.17;101179.00;5079683;27;45462;-93
2021/06/19 03:05:15;;;;;;;;;3.00;2.33;;;;;21.62;60.84;101184.31;5079148;28;47037;-90
2021/06/19 03:07:41;;;;;;;;;3.00;3.00;;;;;21.62;61.20;101186.97;5080947;27;45339;-91
2021/06/19 03:10:08;;;;;;;;;3.00;3.00;;;;;21.64;61.07;101189.63;5079357;27;45311;-93
2021/06/19 03:12:34;;;;;;;;;4.33;4.33;;;;;21.67;61.06;101196.69;5079543;28;45656;-90
2021/06/19 03:15:00;;;;;;;;;4.33;4.33;;;;;21.61;60.94;101187.91;5081973;27;47324;-91
2021/06/19 03:17:25;;;;;;;;;7.00;3.67;;;;;21.59;61.01;101194.19;5086990;27;45293;-90
2021/06/19 03:19:50;;;;;;;;;5.00;3.67;;;;;21.53;60.86;101168.47;5083539;28;45343;-90
2021/06/19 03:22:16;;;;;;;;;3.00;3.00;;;;;21.49;60.84;101164.97;5082733;28;44785;-90
2021/06/19 03:24:43;;;;;;;;;3.00;3.00;;;;;21.57;61.30;101183.53;5085468;27;46351;-91
2021/06/19 03:27:10;;;;;;;;;3.00;3.00;;;;;21.54;61.12;101167.53;5082230;27;45430;-91
2021/06/19 03:29:36;;;;;;;;;4.00;4.00;;;;;21.50;61.01;101153.38;5084538;27;45355;-90
2021/06/19 03:32:02;;;;;;;;;4.00;4.00;;;;;21.62;61.11;101175.41;5083058;27;45340;-91
2021/06/19 03:34:28;;;;;;;;;4.33;4.00;;;;;21.45;61.27;101157.06;5084142;27;46556;-90
2021/06/19 03:36:59;;;;;;;;;5.00;3.67;;;;;21.50;61.31;101176.56;5085208;27;45357;-90
2021/06/19 03:39:25;;;;;;;;;3.67;3.67;;;;;21.49;61.27;101173.00;5092775;27;45322;-90
2021/06/19 03:41:51;;;;;;;;;4.00;4.00;;;;;21.36;61.08;101164.34;5083481;27;45390;-91
2021/06/19 03:44:16;;;;;;;;;4.00;3.00;;;;;21.39;61.52;101169.63;5078195;28;46347;-91
2021/06/19 03:46:42;;;;;;;;;4.00;3.00;;;;;21.34;61.29;101146.59;5078485;28;45898;-92
2021/06/19 03:49:07;;;;;;;;;5.67;4.00;;;;;21.36;61.46;101152.78;5079101;28;45273;-91
2021/06/19 03:51:33;;;;;;;;;3.00;3.00;;;;;21.46;61.69;101186.44;5079009;28;46536;-93
2021/06/19 03:53:58;;;;;;;;;4.00;4.00;;;;;21.30;61.61;101167.13;5078999;27;48321;-91
2021/06/19 03:56:24;;;;;;;;;4.67;4.67;;;;;21.46;61.54;101177.53;5080434;27;45648;-91
2021/06/19 03:58:49;;;;;;;;;2.67;2.67;;;;;21.33;61.89;101169.78;5081912;27;45581;-92
2021/06/19 04:01:14;;;;;;;;;5.00;4.00;;;;;21.25;61.97;101151.22;5084122;27;45215;-91
2021/06/19 04:03:40;;;;;;;;;4.00;4.00;;;;;21.27;61.82;101164.53;5088229;28;47081;-90
2021/06/19 04:06:06;;;;;;;;;5.33;4.00;;;;;21.26;62.24;101168.13;5096666;28;45462;-91
2021/06/19 04:08:31;;;;;;;;;4.00;4.00;;;;;21.32;61.69;101180.50;5100613;27;44819;-91
2021/06/19 04:10:57;;;;;;;;;6.00;4.33;;;;;21.30;61.96;101167.13;5095582;28;45481;-91
2021/06/19 04:13:22;;;;;;;;;6.00;5.67;;;;;21.33;62.01;101172.44;5083006;27;46934;-93
2021/06/19 04:15:48;;;;;;;;;4.00;4.00;;;;;21.24;61.96;101162.81;5088199;27;45404;-91
2021/06/19 04:18:13;;;;;;;;;5.67;4.33;;;;;21.28;62.44;101171.63;5081749;27;45651;-90
2021/06/19 04:20:39;;;;;;;;;6.00;4.67;;;;;21.32;62.46;101175.16;5080204;27;45511;-92
2021/06/19 04:23:04;;;;;;;;;5.00;4.00;;;;;21.24;62.65;101161.94;5079265;27;47329;-93
2021/06/19 04:25:30;;;;;;;;;3.67;3.67;;;;;21.37;63.04;101186.63;5082825;27;45398;-92
2021/06/19 04:27:57;;;;;;;;;7.33;4.67;;;;;21.29;62.50;101160.06;5095047;27;45288;-90
2021/06/19 04:30:24;;;;;;;;;5.33;5.33;;;;;21.45;62.11;101192.69;5093103;27;45399;-91
2021/06/19 04:32:54;;;;;;;;;5.00;4.00;;;;;21.32;62.64;101164.47;5091991;27;47398;-90
2021/06/19 04:35:20;;;;;;;;;4.33;4.33;;;;;21.44;62.62;101172.22;5092312;27;45462;-91
2021/06/19 04:37:46;;;;;;;;;5.00;3.00;;;;;21.34;62.58;101163.50;5089051;27;45294;-91
2021/06/19 04:40:18;;;;;;;;;5.00;5.00;;;;;21.52;62.55;101202.34;5088741;28;45304;-89
2021/06/19 04:42:47;;;;;;;;;4.00;4.00;;;;;21.43;62.31;101169.59;5088221;28;47237;-91
2021/06/19 04:45:13;;;;;;;;;4.33;3.67;;;;;21.42;62.58;101158.00;5094034;27;45370;-92
2021/06/19 04:47:41;;;;;;;;;5.67;5.67;;;;;21.50;62.15;101171.19;5092324;27;45502;-91
2021/06/19 04:50:09;;;;;;;;;5.00;5.00;;;;;21.49;62.56;101189.03;5086356;27;45588;-93
2021/06/19 04:52:40;;;;;;;;;5.33;5.33;;;;;21.46;62.52;101166.84;5083563;28;47304;-92
2021/06/19 04:55:06;;;;;;;;;9.67;7.00;;;;;21.49;62.63;101175.66;5082108;28;45649;-92
2021/06/19 04:57:32;;;;;;;;;4.33;4.33;;;;;21.38;62.42;101181.22;5082461;27;45315;-91
2021/06/19 04:59:58;;;;;;;;;4.67;4.67;;;;;21.54;62.14;101204.09;5081580;27;45448;-92
2021/06/19 05:02:24;;;;;;;;;6.67;6.00;;;;;21.39;62.64;101182.13;5081076;27;47338;-91
2021/06/19 05:04:49;;;;;;;;;5.00;5.00;;;;;21.52;63.02;101206.81;5079609;28;45368;-91
2021/06/19 05:07:14;;;;;;;;;5.00;5.00;;;;;21.39;62.79;101174.97;5079052;28;45497;-91
2021/06/19 05:09:41;;;;;;;;;6.00;6.00;;;;;21.53;62.37;101195.22;5080581;27;45448;-93
2021/06/19 05:12:07;;;;;;;;;5.67;5.00;;;;;21.37;62.77;101186.63;5078104;27;47530;-89
2021/06/19 05:14:33;;;;;;;;;6.67;5.00;;;;;21.46;62.66;101199.81;5077766;28;45324;-91
2021/06/19 05:16:59;;;;;;;;;8.33;6.67;;;;;21.35;62.68;101180.44;5074044;27;45366;-93
2021/06/19 05:19:24;;;;;;;;;3.00;3.00;;;;;21.45;62.74;101194.50;5081716;27;45231;-89
2021/06/19 05:21:50;;;;;;;;;7.33;6.00;;;;;21.47;62.95;101182.84;5081000;27;48447;-91
2021/06/19 05:24:16;;;;;;;;;10.33;8.00;;;;;21.57;63.10;101188.91;5099550;27;45389;-91
2021/06/19 05:26:42;;;;;;;;;6.33;4.33;;;;;21.49;62.47;101180.16;5099899;27;45405;-89
2021/06/19 05:29:07;;;;;;;;;5.33;4.67;;;;;21.55;62.58;101201.41;5105217;27;45559;-89
2021/06/19 05:31:33;;;;;;;;;7.00;5.67;;;;;21.56;62.72;101199.59;5110894;27;45415;-88
2021/06/19 05:33:58;;;;;;;;;6.67;6.67;;;;;21.56;62.80;101203.16;5081854;27;45338;-89
2021/06/19 05:36:24;;;;;;;;;5.00;5.00;;;;;21.57;62.73;101193.34;5080653;27;45446;-90
2021/06/19 05:38:50;;;;;;;;;7.67;7.00;;;;;21.49;62.62;101180.16;5099566;27;45472;-90
2021/06/19 05:41:15;;;;;;;;;7.00;7.00;;;;;21.66;62.79;101186.94;5098789;27;45490;-89
2021/06/19 05:43:41;;;;;;;;;6.33;5.33;;;;;21.68;62.55;101179.75;5080065;27;45499;-90
2021/06/19 05:46:06;;;;;;;;;8.00;5.67;;;;;21.64;62.42;101176.25;5101157;27;45155;-91
2021/06/19 05:48:32;;;;;;;;;7.00;7.00;;;;;21.69;62.10;101182.38;5083941;27;45505;-90
2021/06/19 05:50:58;;;;;;;;;5.67;5.67;;;;;21.69;62.22;101162.75;5102631;27;45234;-89
2021/06/19 05:53:25;;;;;;;;;5.00;5.00;;;;;21.75;62.44;101184.03;5103480;27;45289;-91
2021/06/19 05:55:50;;;;;;;;;7.33;7.00;;;;;21.69;62.54;101165.44;5084629;27;45390;-91
2021/06/19 05:58:16;;;;;;;;;4.00;4.00;;;;;21.63;62.44;101161.13;5103009;27;45391;-89
2021/06/19 06:00:41;;;;;;;;;5.00;5.00;;;;;21.75;62.63;101181.34;5084537;27;47891;-88
2021/06/19 06:03:07;;;;;;;;;9.00;5.00;;;;;21.79;62.49;101187.50;5081496;27;45440;-92
2021/06/19 06:05:35;;;;;;;;;6.00;4.67;;;;;21.62;62.38;101154.88;5102001;27;45760;-91
2021/06/19 06:08:01;;;;;;;;;6.33;5.33;;;;;21.84;61.98;101189.22;5104194;27;45235;-91
2021/06/19 06:10:28;;;;;;;;;6.00;5.67;;;;;21.81;62.16;101186.56;5084619;27;48048;-92
2021/06/19 06:12:54;;;;;;;;;6.00;5.00;;;;;21.72;62.26;101165.38;5103333;27;45312;-91
2021/06/19 06:15:20;;;;;;;;;6.00;4.00;;;;;21.77;62.42;101162.59;5102375;27;45476;-92
2021/06/19 06:17:47;;;;;;;;;4.67;4.33;;;;;21.88;62.15;101173.97;5105148;27;45422;-93
2021/06/19 06:20:13;;;;;;;;;6.00;4.67;;;;;21.83;62.14;101155.34;5090827;27;47380;-90
2021/06/19 06:22:41;;;;;;;;;5.00;5.00;;;;;21.89;62.09;101151.66;5108802;27;45416;-92
2021/06/19 06:25:07;;;;;;;;;5.33;5.33;;;;;21.86;62.19;101152.59;5107740;27;44756;-91
2021/06/19 06:27:33;;;;;;;;;6.00;6.00;;;;;21.91;62.11;101154.28;5090529;27;45373;-92
2021/06/19 06:29:58;;;;;;;;;6.00;5.00;;;;;22.03;61.76;101158.47;5096460;27;47898;-89
2021/06/19 06:32:23;;;;;;;;;5.33;5.33;;;;;22.03;62.11;101153.09;5090044;27;44837;-91
2021/06/19 06:34:49;;;;;;;;;5.67;5.00;;;;;22.01;61.76;101150.47;5108340;27;45383;-91
2021/06/19 06:37:14;;;;;;;;;5.00;5.00;;;;;22.12;61.91;101165.41;5107721;27;45173;-91
2021/06/19 06:39:40;;;;;;;;;6.33;6.00;;;;;22.03;62.04;101137.94;5105408;27;45398;-92
2021/06/19 06:42:06;;;;;;;;;6.00;6.00;;;;;22.15;61.84;101151.91;5104900;27;45478;-91
2021/06/19 06:44:31;;;;;;;;;8.00;6.00;;;;;22.20;61.27;101172.31;5085874;27;45409;-91
2021/06/19 06:46:57;;;;;;;;;7.00;6.00;;;;;22.21;61.86;101173.19;5105135;27;45472;-93
2021/06/19 06:49:23;;;;;;;;;7.33;7.33;;;;;22.14;61.39;101164.44;5087722;27;47227;-93
2021/06/19 06:51:48;;;;;;;;;5.33;5.33;;;;;22.26;61.74;101192.72;5114363;27;45406;-91
2021/06/19 06:54:14;;;;;;;;;8.00;6.67;;;;;22.17;61.63;101177.75;5100420;27;44801;-92
2021/06/19 06:56:40;;;;;;;;;9.00;5.33;;;;;22.23;61.95;101190.09;5102431;27;45366;-93
2021/06/19 06:59:05;;;;;;;;;6.00;4.00;;;;;22.27;62.15;101193.59;5118827;27;48002;-90
2021/06/19 07:01:31;;;;;;;;;8.67;8.67;;;;;22.29;62.08;101191.75;5117462;27;45123;-92
2021/06/19 07:03:58;;;;;;;;;7.00;7.00;;;;;22.27;62.36;101167.69;5095850;27;45199;-93
2021/06/19 07:06:24;;;;;;;;;7.67;7.67;;;;;22.32;62.31;101171.13;5112728;27;45320;-90
2021/06/19 07:08:50;;;;;;;;;7.00;5.67;;;;;22.39;61.72;101192.41;5109495;27;45498;-93
2021/06/19 07:11:16;;;;;;;;;7.67;7.67;;;;;22.43;62.03;101194.97;5086468;27;45403;-93
2021/06/19 07:13:44;;;;;;;;;8.00;7.00;;;;;22.43;61.15;101189.63;5104553;27;45419;-91
2021/06/19 07:16:10;;;;;;;;;8.00;8.00;;;;;22.54;60.93;101191.13;5106075;27;45358;-92
2021/06/19 07:18:35;;;;;;;;;7.00;7.00;;;;;22.50;61.61;101179.63;5089433;27;47981;-91
2021/06/19 07:21:01;;;;;;;;;7.00;7.00;;;;;22.63;61.73;101185.53;5106618;27;45394;-92
2021/06/19 07:23:29;;;;;;;;;8.67;8.33;;;;;22.77;61.41;101187.00;5092666;27;45244;-91
2021/06/19 07:25:55;;;;;;;;;10.00;8.00;;;;;22.80;61.65;101181.59;5104955;27;45509;-91
2021/06/19 07:28:21;;;;;;;;;8.00;6.33;;;;;22.83;61.85;101172.56;5087697;27;47172;-90
2021/06/19 07:30:46;;;;;;;;;8.33;7.67;;;;;22.86;61.12;101173.38;5086169;27;45348;-91
2021/06/19 07:33:12;;;;;;;;;10.67;8.00;;;;;23.01;61.30;101180.09;5083133;27;45463;-91
2021/06/19 07:35:37;;;;;;;;;12.00;11.00;;;;;22.94;60.84;101154.38;5082985;27;45460;-92
2021/06/19 07:38:03;;;;;;;;;13.00;10.00;;;;;22.87;60.93;101132.22;5082498;27;47098;-91
2021/06/19 07:40:28;;;;;;;;;8.67;7.67;;;;;22.99;59.97;101138.19;5083053;27;45733;-91
2021/06/19 07:42:54;;;;;;;;;10.33;10.00;;;;;22.98;60.02;101123.00;5083617;27;45356;-93
2021/06/19 07:45:21;;;;;;;;;10.33;8.67;;;;;23.01;60.36;101105.03;5103179;27;45424;-91
2021/06/19 07:47:47;;;;;;;;;8.67;8.00;;;;;23.02;60.00;101079.97;5082363;27;48295;-91
2021/06/19 07:50:13;;;;;;;;;8.00;8.00;;;;;23.00;60.31;101075.59;5081961;27;45800;-90
2021/06/19 07:52:38;;;;;;;;;9.67;8.33;;;;;23.07;60.58;101078.97;5082199;27;45442;-90
2021/06/19 07:55:04;;;;;;;;;12.00;10.00;;;;;22.99;60.25;101066.66;5083648;27;45390;-91
2021/06/19 07:57:31;;;;;;;;;11.00;11.00;;;;;23.05;60.59;101072.78;5083136;27;47185;-93
2021/06/19 07:59:56;;;;;;;;;9.00;9.00;;;;;23.00;60.02;101059.50;5080540;27;45354;-90
2021/06/19 08:02:22;;;;;;;;;9.67;9.00;;;;;23.14;61.06;101088.56;5093496;27;45491;-90
2021/06/19 08:04:47;;;;;;;;;12.00;11.00;;;;;23.23;60.29;101106.19;5081437;28;45352;-91
2021/06/19 08:07:13;;;;;;;;;9.00;9.00;;;;;23.19;60.89;101097.38;5099236;27;47144;-91
2021/06/19 08:09:38;;;;;;;;;11.33;10.00;;;;;23.09;60.15;101069.97;5105506;27;45354;-92
2021/06/19 08:12:04;;;;;;;;;11.67;9.33;;;;;23.09;59.70;101069.97;5086981;27;45519;-91
2021/06/19 08:14:30;;;;;;;;;9.00;8.67;;;;;23.18;60.78;101092.91;5087265;27;45427;-90
2021/06/19 08:16:58;;;;;;;;;10.67;10.67;;;;;23.08;59.89;101069.97;5102166;27;46934;-92
2021/06/19 08:19:24;;;;;;;;;10.67;9.33;;;;;23.12;60.42;101067.16;5082853;27;45291;-92
2021/06/19 08:21:51;;;;;;;;;9.67;8.33;;;;;23.17;61.04;101060.78;5084057;27;45478;-92
2021/06/19 08:24:26;;;;;;;;;;;;;;;;;;;;;
2021/06/19 08:26:52;;;;;;;;;11.00;10.67;;;;;23.17;60.75;101069.72;5098456;27;75202;-91
2021/06/19 08:29:18;;;;;;;;;9.00;9.00;;;;;23.14;61.11;101072.47;5082707;27;45414;-92
2021/06/19 08:31:43;;;;;;;;;8.33;8.33;;;;;23.22;61.63;101099.09;5100675;27;45315;-91
2021/06/19 08:34:09;;;;;;;;;8.33;8.33;;;;;23.17;61.22;101091.16;5083305;27;45583;-92
2021/06/19 08:36:35;;;;;;;;;9.67;9.67;;;;;23.19;61.94;101067.88;5102969;27;45443;-90
2021/06/19 08:39:01;;;;;;;;;10.33;10.33;;;;;23.27;61.06;101061.41;5083172;27;45848;-90
2021/06/19 08:41:27;;;;;;;;;10.67;10.67;;;;;23.29;61.79;101047.00;5082226;27;45837;-92
2021/06/19 08:43:53;;;;;;;;;10.00;8.33;;;;;23.39;62.24;101055.66;5081914;27;45341;-93
2021/06/19 08:46:21;;;;;;;;;14.33;10.00;;;;;23.42;60.56;101058.22;5100556;27;45456;-93
2021/06/19 08:48:54;;;;;;;;;8.33;8.33;;;;;23.43;61.47;101051.06;5096408;27;45424;-89
2021/06/19 08:51:24;;;;;;;;;11.33;9.00;;;;;23.43;61.22;101057.31;5105915;27;45510;-92
2021/06/19 08:53:49;;;;;;;;;10.33;9.33;;;;;23.44;61.08;101047.44;5085828;27;45481;-93
2021/06/19 08:56:17;;;;;;;;;10.67;9.00;;;;;23.50;60.80;101058.00;5084292;27;47057;-91
2021/06/19 08:58:43;;;;;;;;;10.33;9.33;;;;;23.41;60.86;101048.44;5101125;27;45321;-91
2021/06/19 09:01:09;;;;;;;;;8.33;8.33;;;;;23.37;60.78;101028.84;5081274;27;45269;-90
2021/06/19 09:03:34;;;;;;;;;9.00;8.67;;;;;23.47;60.95;101042.03;5101106;27;45202;-90
2021/06/19 09:06:29;;;;;;;;;11.00;9.67;;;;;23.51;60.15;101053.53;5088134;27;47372;-92
2021/06/19 09:09:00;;;;;;;;;10.67;10.00;;;;;23.52;61.07;101049.94;5113894;27;45215;-94
2021/06/19 09:11:46;;;;;;;;;10.33;8.33;;;;;23.35;60.91;101016.44;5115492;27;45183;-89
2021/06/19 09:14:20;;;;;;;;;12.67;10.00;;;;;23.56;60.78;101046.22;5121543;27;44833;-91
2021/06/19 09:17:07;;;;;;;;;12.67;12.00;;;;;23.57;60.16;101050.66;5101883;27;47109;-89
2021/06/19 09:19:37;;;;;;;;;10.00;10.00;;;;;23.42;60.87;101023.34;5096762;27;45322;-91
2021/06/19 09:22:23;;;;;;;;;10.33;9.33;;;;;23.46;60.26;101019.69;5084631;27;45464;-92
2021/06/19 09:24:51;;;;;;;;;12.33;11.33;;;;;23.61;60.96;101028.16;5099301;27;45484;-90
2021/06/19 09:27:39;;;;;;;;;12.33;8.33;;;;;23.89;61.58;101043.34;5081080;27;48118;-90
2021/06/19 09:30:41;;;;;;;;;12.00;11.00;;;;;23.88;60.72;101030.84;5099179;27;45428;-91
2021/06/19 09:33:11;;;;;;;;;8.67;8.00;;;;;23.95;60.69;101031.50;5015733;28;45476;-91
2021/06/19 09:35:39;;;;;;;;;12.67;11.33;;;;;24.00;60.00;101039.41;4999807;28;45507;-92
2021/06/19 09:38:10;;;;;;;;;11.33;10.00;;;;;24.08;59.77;101053.44;4999717;28;47329;-94
2021/06/19 09:40:46;;;;;;;;;12.00;10.00;;;;;24.08;59.40;101036.44;5000178;28;45412;-93
2021/06/19 09:43:23;;;;;;;;;11.33;9.00;;;;;24.32;60.12;101047.31;5016030;28;45321;-92
2021/06/19 09:46:05;;;;;;;;;13.33;11.00;;;;;24.39;59.93;101044.34;4999320;28;45615;-93
2021/06/19 09:48:33;;;;;;;;;11.00;11.00;;;;;24.43;60.20;101041.56;4999714;28;48124;-94
2021/06/19 09:51:26;;;;;;;;;14.00;11.33;;;;;24.45;59.92;101048.59;4999621;28;45970;-93
2021/06/19 09:54:02;;;;;;;;;14.00;12.67;;;;;24.40;60.00;101018.34;5000361;28;45487;-94
2021/06/19 09:56:28;;;;;;;;;16.00;12.67;;;;;24.43;59.82;101023.59;5000259;28;45925;-91
2021/06/19 09:58:57;;;;;;;;;11.00;11.00;;;;;24.53;59.65;101037.59;5016362;28;45547;-91
2021/06/19 10:01:34;;;;;;;;;14.67;13.00;;;;;24.55;59.81;101030.34;5000417;28;45408;-95
2021/06/19 10:04:00;;;;;;;;;10.33;10.00;;;;;24.62;59.20;101026.50;5017498;28;45304;-91
2021/06/19 10:06:28;;;;;;;;;12.33;10.33;;;;;24.69;59.15;101031.63;5017210;28;45527;-93
2021/06/19 10:08:55;;;;;;;;;10.33;10.33;;;;;24.74;59.40;101021.59;5050038;27;48087;-94
2021/06/19 10:11:25;;;;;;;;;11.67;10.00;;;;;25.02;59.19;101025.97;5099386;27;45306;-92
2021/06/19 10:13:52;;;;;;;;;17.33;14.33;;;;;25.26;58.88;101017.81;5080893;27;45469;-92
2021/06/19 10:16:18;;;;;;;;;17.33;12.67;;;;;25.58;57.82;101000.41;5099159;27;45644;-92
2021/06/19 10:18:47;;;;;;;;;11.00;11.00;;;;;26.05;58.77;100998.47;5082099;27;47148;-91
2021/06/19 10:21:17;;;;;;;;;8.33;6.33;;;;;26.56;57.58;101019.63;5082775;27;45658;-93
2021/06/19 10:23:47;;;;;;;;;14.00;12.00;;;;;26.82;57.27;101006.75;5082509;27;45373;-91
2021/06/19 10:26:22;;;;;;;;;9.00;8.00;;;;;27.18;56.35;100996.97;5083150;27;45358;-92
2021/06/19 10:28:56;;;;;;;;;11.00;10.00;;;;;27.55;55.30;101001.50;5082491;27;47035;-92
2021/06/19 10:31:23;;;;;;;;;12.00;11.00;;;;;27.99;53.83;101005.59;5083433;27;45704;-93
2021/06/19 10:33:50;;;;;;;;;11.00;10.00;;;;;28.23;53.79;100994.47;5085907;27;45329;-91
2021/06/19 10:36:28;;;;;;;;;;;;;;;;;;;;;
2021/06/19 10:38:56;;;;;;;;;12.00;11.00;;;;;28.57;51.97;100985.50;5099705;27;75544;-92
2021/06/19 10:41:51;;;;;;;;;12.00;10.67;;;;;28.59;52.37;100978.19;5103634;27;45397;-91
2021/06/19 10:44:58;;;;;;;;;11.67;11.33;;;;;28.83;50.51;101002.13;5086084;27;45549;-92
2021/06/19 10:47:54;;;;;;;;;14.67;13.67;;;;;28.92;50.30;100985.34;5086187;27;45600;-93
2021/06/19 10:50:36;;;;;;;;;11.00;9.00;;;;;29.07;50.49;100975.53;5102991;27;45633;-92
2021/06/19 10:53:13;;;;;;;;;10.33;9.67;;;;;29.27;48.84;100967.22;5103511;27;45317;-93
2021/06/19 10:55:49;;;;;;;;;11.67;11.33;;;;;29.60;49.37;100974.31;5086340;27;45178;-93
2021/06/19 10:58:33;;;;;;;;;12.00;10.33;;;;;29.68;49.27;100961.19;5108214;27;45467;-94
2021/06/19 11:01:00;;;;;;;;;11.67;11.00;;;;;29.89;48.03;100965.44;5086548;27;46811;-93
2021/06/19 11:03:48;;;;;;;;;11.00;11.00;;;;;30.05;48.44;100962.63;5105679;27;44751;-93
2021/06/19 11:06:29;;;;;;;;;12.67;11.33;;;;;30.31;48.61;100970.97;5087631;27;45487;-92
2021/06/19 11:09:15;;;;;;;;;12.00;10.00;;;;;30.46;47.36;100938.47;5089994;27;45420;-93
2021/06/19 11:11:55;;;;;;;;;14.00;12.00;;;;;30.78;47.59;100953.63;5092360;27;47468;-92
2021/06/19 11:14:41;;;;;;;;;11.33;11.33;;;;;31.06;46.97;100958.13;5125990;27;45266;-93
2021/06/19 11:17:08;;;;;;;;;10.33;10.00;;;;;31.12;46.26;100940.53;5108778;27;45163;-91
2021/06/19 11:19:39;;;;;;;;;11.67;10.67;;;;;31.25;44.89;100937.88;5089491;27;45472;-94
2021/06/19 11:22:27;;;;;;;;;10.67;9.33;;;;;31.38;45.17;100951.50;5103569;27;45415;-92
2021/06/19 11:25:26;;;;;;;;;11.00;10.00;;;;;31.43;45.79;100959.34;5107914;27;45314;-91
2021/06/19 11:28:00;;;;;;;;;13.00;11.00;;;;;31.30;45.01;100941.16;5119018;27;44759;-92
2021/06/19 11:30:43;;;;;;;;;14.67;11.33;;;;;31.19;44.96;100936.47;5118570;27;45461;-92